Latest Weather Observations for Laverton

IDV60901

Issued at 7:51 am EDT Friday 19 December 2014 (issued every 10 minutes, with the page automatically refreshed every 10 minutes)

About weather observations | Map of Melbourne area stations | Latest observations for Melbourne area | Other Formats
Station Details ID: 087031 Name: LAVERTON RAAF Lat: -37.86 Lon: 144.76 Height: 20.1 m
Data from the previous 72 hours. | See also: Recent months at Laverton
Date/Time
EDT
Tmp

°C
App
Tmp
°C
Dew
Point
°C
Rel
Hum
%
Delta-T

°C
Wind Press
QNH
hPa
Press
MSL
hPa
Rain
since
9 am
mm
Dir
 
Spd
km/h
Gust
km/h
Spd
kts
Gust
kts
19/07:30am 12.5 8.6 8.8 78 1.8 W 19 24 10 13 1016.0 1015.9 3.6
19/07:00am 11.0 7.4 8.2 83 1.4 W 17 24 9 13 1015.8 1015.7 3.6
19/06:30am 10.6 7.3 8.0 84 1.3 W 15 22 8 12 1015.4 1015.3 3.6
19/05:30am 10.1 6.3 7.7 85 1.2 W 17 20 9 11 1014.9 1014.8 3.6
19/05:00am 9.9 6.9 7.5 85 1.1 W 13 17 7 9 1014.6 1014.5 3.6
19/04:30am 10.5 7.5 7.6 82 1.4 W 13 19 7 10 1014.2 1014.1 3.6
19/04:00am 10.6 7.2 7.7 82 1.4 W 15 20 8 11 1013.9 1013.8 3.6
19/03:30am 10.5 7.9 7.6 82 1.4 W 11 17 6 9 1013.8 1013.7 3.6
19/03:00am 10.9 8.0 8.0 82 1.4 W 13 19 7 10 1013.8 1013.7 3.6
19/02:30am 10.9 7.6 8.1 83 1.4 W 15 19 8 10 1013.7 1013.6 3.6
19/02:00am 11.3 8.0 8.0 80 1.6 W 15 19 8 10 1013.7 1013.6 3.6
19/01:30am 11.5 8.6 8.0 79 1.7 W 13 17 7 9 1013.7 1013.6 3.6
19/01:00am 11.6 8.6 7.9 78 1.8 W 13 17 7 9 1013.7 1013.6 3.6
19/12:30am 12.0 9.1 8.1 77 1.9 W 13 19 7 10 1013.7 1013.6 3.6
19/12:00am 12.9 9.9 7.8 71 2.5 WSW 13 17 7 9 1013.6 1013.5 3.6
 
Date/Time
EDT
Tmp

°C
App
Tmp
°C
Dew
Point
°C
Rel
Hum
%
Delta-T

°C
Wind Press
QNH
hPa
Press
MSL
hPa
Rain
since
9 am
mm
Dir
 
Spd
km/h
Gust
km/h
Spd
kts
Gust
kts
18/11:30pm 13.4 9.7 7.8 69 2.8 WSW 17 22 9 12 1013.6 1013.5 3.6
18/11:00pm 13.9 10.2 8.1 68 2.9 WSW 17 22 9 12 1013.4 1013.3 3.6
18/10:30pm 14.4 10.3 7.9 65 3.2 WSW 19 26 10 14 1013.3 1013.2 3.6
18/10:00pm 14.8 10.9 8.7 67 3.1 SW 19 24 10 13 1013.0 1012.9 3.6
18/09:30pm 15.2 12.8 10.2 72 2.6 SW 13 17 7 9 1012.5 1012.4 3.6
18/09:00pm 15.4 14.6 11.8 79 1.9 SW 7 9 4 5 1012.1 1012.0 3.6
18/08:30pm 15.3 13.6 11.3 77 2.1 SW 11 15 6 8 1011.7 1011.6 3.6
18/08:00pm 15.7 14.2 10.5 71 2.8 W 9 15 5 8 1011.1 1011.1 3.2
18/07:30pm 16.1 14.3 10.8 71 2.8 W 11 17 6 9 1010.8 1010.8 3.2
18/07:00pm 15.3 13.4 11.7 79 1.9 WSW 13 20 7 11 1010.2 1010.2 3.2
18/06:52pm 15.1 12.8 11.9 81 1.7 SW 15 24 8 13 1010.1 1010.1 3.2
18/06:30pm 15.2 11.8 11.2 77 2.1 WSW 20 30 11 16 1009.9 1009.9 2.6
18/06:26pm 15.6 12.1 11.0 74 2.5 WSW 20 30 11 16 1009.8 1009.8 2.2
18/05:30pm 15.7 13.7 12.6 82 1.7 WSW 15 22 8 12 1008.8 1008.8 1.4
18/05:00pm 14.7 10.3 11.7 82 1.6 WSW 26 39 14 21 1009.1 1009.1 0.6
18/04:41pm 15.0 10.3 12.1 83 1.6 WSW 28 50 15 27 1008.6 1008.6 0.6
18/04:33pm 14.8 10.1 12.1 84 1.5 WSW 28 35 15 19 1008.5 1008.5 0.6
18/04:30pm 14.8 10.6 12.3 85 1.4 WSW 26 35 14 19 1008.4 1008.4 0.6
18/04:15pm 14.2 7.2 11.4 83 1.5 WSW 39 61 21 33 1008.2 1008.2 0.4
18/04:00pm 14.7 7.8 11.5 81 1.7 WSW 39 59 21 32 1007.8 1007.8 0.0
18/03:30pm 16.0 6.6 10.3 69 3.0 WSW 50 70 27 38 1006.9 1006.9 0.0
18/03:08pm 18.5 12.0 9.0 54 5.0 WSW 33 74 18 40 1006.2 1006.2 0.0
18/03:07pm 19.9 13.8 8.3 47 6.0 WSW 30 74 16 40 1006.1 1006.1 0.0
18/03:00pm 22.9 17.6 4.9 31 9.0 WSW 22 32 12 17 1005.4 1005.4 0.0
18/02:30pm 23.0 18.5 4.0 29 9.3 W 17 28 9 15 1005.1 1005.1 0.0
18/02:00pm 23.7 17.7 3.6 27 9.8 WNW 24 35 13 19 1005.2 1005.2 0.0
18/01:30pm 23.6 17.3 3.5 27 9.8 WNW 26 37 14 20 1005.3 1005.3 0.0
18/01:00pm 23.5 17.2 4.0 28 9.6 W 26 37 14 20 1005.6 1005.6 0.0
18/12:30pm 22.3 15.0 4.4 31 8.8 W 32 50 17 27 1005.9 1005.9 0.0
18/12:06pm 22.8 16.2 4.3 30 9.1 WSW 28 46 15 25 1005.6 1005.6 0.0
18/12:00pm 23.1 17.4 5.1 31 9.0 WSW 24 37 13 20 1005.6 1005.6 0.0
18/11:30am 22.7 15.5 5.2 32 8.7 W 32 46 17 25 1005.7 1005.7 0.0
18/11:00am 22.1 15.8 5.5 34 8.3 W 28 46 15 25 1005.5 1005.5 0.0
18/10:57am 22.5 15.9 5.9 34 8.4 W 30 46 16 25 1005.4 1005.4 0.0
18/10:30am 22.0 16.6 6.3 36 8.0 W 24 33 13 18 1005.6 1005.6 0.0
18/10:00am 22.8 17.0 6.1 34 8.5 WNW 26 35 14 19 1005.7 1005.7 0.0
18/09:34am 21.7 15.3 5.2 34 8.2 WNW 28 46 15 25 1005.5 1005.5 0.0
18/09:30am 21.7 15.3 5.2 34 8.2 WNW 28 35 15 19 1005.5 1005.5 0.0
18/09:00am 20.3 15.8 7.0 42 6.8 WNW 20 28 11 15 1005.7 1005.7 0.0
18/08:30am 17.3 14.6 9.0 58 4.3 NW 13 19 7 10 1005.7 1005.7 0.0
18/08:00am 15.2 12.7 8.4 64 3.4 WNW 11 13 6 7 1005.9 1005.9 0.0
18/07:30am 13.4 11.0 8.5 72 2.5 NW 11 15 6 8 1005.7 1005.7 0.0
18/07:00am 11.8 9.8 8.6 81 1.6 N 9 11 5 6 1005.6 1005.6 0.0
18/06:30am 9.7 7.4 7.5 86 1.0 NNW 9 13 5 7 1005.5 1005.5 0.0
18/06:00am 9.3 6.5 7.1 86 1.0 NNW 11 13 6 7 1005.7 1005.7 0.0
18/05:30am 9.2 6.8 7.0 86 1.0 NNW 9 13 5 7 1005.4 1005.4 0.0
18/05:00am 9.1 6.2 6.7 85 1.1 NW 11 13 6 7 1005.3 1005.3 0.0
18/04:30am 9.3 6.9 6.9 85 1.1 NW 9 11 5 6 1005.2 1005.2 0.0
18/04:00am 9.2 6.0 6.8 85 1.1 WNW 13 17 7 9 1005.4 1005.4 0.0
18/03:30am 9.5 6.7 6.8 83 1.3 NW 11 13 6 7 1005.2 1005.2 0.0
18/03:00am 9.4 6.5 6.3 81 1.4 WNW 11 13 6 7 1005.5 1005.5 0.0
18/02:30am 9.7 7.1 6.2 79 1.6 WNW 9 11 5 6 1005.8 1005.8 0.0
18/02:00am 10.4 7.4 6.2 75 2.0 NW 11 13 6 7 1006.0 1006.0 0.0
18/01:30am 13.4 11.6 7.0 65 3.1 SE 6 9 3 5 1006.1 1006.1 0.0
18/01:00am 14.3 12.3 6.9 61 3.6 SE 7 13 4 7 1006.6 1006.6 0.0
18/12:30am 14.8 11.5 6.6 58 4.0 SE 13 20 7 11 1006.9 1006.9 0.0
18/12:00am 14.6 12.0 7.9 64 3.3 ESE 11 15 6 8 1007.3 1007.3 0.0
 
Date/Time
EDT
Tmp

°C
App
Tmp
°C
Dew
Point
°C
Rel
Hum
%
Delta-T

°C
Wind Press
QNH
hPa
Press
MSL
hPa
Rain
since
9 am
mm
Dir
 
Spd
km/h
Gust
km/h
Spd
kts
Gust
kts
17/11:30pm 15.0 11.6 7.5 61 3.7 ESE 15 22 8 12 1007.5 1007.5 0.0
17/11:00pm 14.9 12.2 7.5 61 3.7 SE 11 17 6 9 1008.1 1008.1 0.0
17/10:30pm 15.2 12.4 8.4 64 3.4 ESE 13 22 7 12 1008.2 1008.2 0.0
17/10:00pm 15.5 12.3 8.5 63 3.6 SE 15 22 8 12 1008.2 1008.2 0.0
17/09:30pm 15.7 12.6 8.7 63 3.6 SE 15 22 8 12 1008.3 1008.3 0.0
17/09:00pm 16.1 12.1 8.3 60 4.0 SSE 19 26 10 14 1008.1 1008.1 0.0
17/08:30pm 16.6 12.3 7.8 56 4.4 SSE 20 28 11 15 1008.0 1008.0 0.0
17/08:00pm 17.2 12.3 8.4 56 4.5 SSE 24 33 13 18 1008.0 1008.0 0.0
17/07:30pm 17.6 13.2 9.0 57 4.5 SSE 22 37 12 20 1007.8 1007.8 0.0
17/07:00pm 17.9 13.0 8.5 54 4.9 SSE 24 35 13 19 1007.5 1007.5 0.0
17/06:30pm 18.5 13.6 8.5 52 5.2 SSE 24 37 13 20 1007.3 1007.3 0.0
17/06:00pm 18.8 13.4 7.9 49 5.6 SSE 26 33 14 18 1007.2 1007.2 0.0
17/05:30pm 19.3 13.2 6.8 44 6.3 SSE 28 37 15 20 1007.1 1007.1 0.0
17/05:00pm 19.6 14.3 6.7 43 6.5 SSE 24 32 13 17 1007.3 1007.3 0.0
17/04:30pm 20.0 15.4 6.7 42 6.7 SE 20 28 11 15 1007.5 1007.5 0.0
17/04:00pm 19.4 14.3 5.8 41 6.7 SSE 22 32 12 17 1007.8 1007.8 0.0
17/03:30pm 19.2 14.7 6.3 43 6.4 ESE 19 26 10 14 1008.0 1008.0 0.0
17/03:00pm 18.9 14.3 6.7 45 6.1 ESE 20 32 11 17 1008.1 1008.1 0.0
17/02:30pm 18.4 13.8 6.3 45 6.0 ESE 20 33 11 18 1008.3 1008.3 0.0
17/02:00pm 18.6 14.1 7.1 47 5.8 ESE 20 30 11 16 1008.7 1008.7 0.0
17/01:30pm 18.6 14.6 6.8 46 5.9 ESE 17 30 9 16 1008.9 1008.9 0.0
17/01:00pm 18.2 14.3 5.4 43 6.2 SE 15 24 8 13 1009.1 1009.1 0.0
17/12:30pm 18.2 15.3 4.4 40 6.6 SW 9 24 5 13 1009.2 1009.2 0.0
17/12:00pm 18.4 14.0 4.9 41 6.5 S 17 24 9 13 1009.3 1009.3 0.0
17/11:30am 18.4 13.9 4.2 39 6.7 SSW 17 28 9 15 1009.2 1009.2 0.0
17/11:00am 17.7 12.9 2.8 37 6.8 SW 17 32 9 17 1009.2 1009.2 0.0
17/10:30am 17.8 13.3 4.4 41 6.4 SSW 17 22 9 12 1009.1 1009.1 0.0
17/10:00am 16.6 11.8 4.9 46 5.6 WSW 19 30 10 16 1009.3 1009.3 0.0
17/09:30am 15.9 11.7 5.5 50 5.0 SW 17 24 9 13 1009.4 1009.4 0.0
17/09:00am 16.3 12.3 6.7 53 4.7 SW 17 24 9 13 1009.2 1009.2 0.0
17/08:30am 15.1 11.2 7.2 59 3.9 W 17 24 9 13 1008.9 1008.9 0.0
17/08:00am 13.7 9.4 6.8 63 3.3 W 19 24 10 13 1008.7 1008.7 0.0
17/07:30am 12.6 8.6 6.6 67 2.9 W 17 24 9 13 1008.2 1008.2 0.0
17/07:00am 11.1 7.2 7.0 76 2.0 WNW 17 20 9 11 1008.0 1008.0 0.0
17/06:30am 10.0 6.5 7.1 82 1.4 WNW 15 19 8 10 1007.7 1007.7 0.0
17/06:00am 8.8 5.1 6.4 85 1.1 WNW 15 17 8 9 1007.3 1007.3 0.0
17/05:30am 8.1 4.6 5.6 84 1.1 NW 13 15 7 8 1006.9 1006.9 0.0
17/05:00am 8.9 5.5 5.8 81 1.4 NW 13 13 7 7 1006.6 1006.6 0.0
17/04:30am 9.9 6.6 6.4 79 1.6 WNW 13 17 7 9 1006.2 1006.2 0.0
17/04:00am 10.7 7.4 6.5 75 2.0 WNW 13 19 7 10 1006.1 1006.1 0.0
17/03:30am 11.1 7.9 6.8 75 2.0 WNW 13 19 7 10 1006.1 1006.1 0.0
17/03:00am 11.5 7.9 6.8 73 2.2 WNW 15 19 8 10 1006.0 1006.0 0.0
17/02:30am 11.5 8.2 6.4 71 2.4 WNW 13 19 7 10 1006.0 1006.0 0.0
17/02:00am 10.4 7.1 6.2 75 2.0 WNW 13 17 7 9 1006.0 1006.0 0.0
17/01:30am 11.9 8.2 6.2 68 2.7 WNW 15 19 8 10 1005.8 1005.8 0.0
17/01:00am 11.7 8.4 6.2 69 2.6 WNW 13 17 7 9 1005.8 1005.8 0.0
17/12:30am 12.7 9.8 6.3 65 3.0 NW 11 13 6 7 1005.9 1005.9 0.0
17/12:00am 13.5 10.5 5.9 60 3.6 W 11 15 6 8 1006.1 1006.1 0.0
 
Date/Time
EDT
Tmp

°C
App
Tmp
°C
Dew
Point
°C
Rel
Hum
%
Delta-T

°C
Wind Press
QNH
hPa
Press
MSL
hPa
Rain
since
9 am
mm
Dir
 
Spd
km/h
Gust
km/h
Spd
kts
Gust
kts
16/11:30pm 14.0 9.4 5.6 57 4.0 WSW 19 26 10 14 1005.7 1005.7 0.0
16/11:00pm 14.4 9.6 5.5 55 4.2 WSW 20 28 11 15 1005.5 1005.5 0.0
16/10:30pm 14.7 10.5 5.5 54 4.4 WSW 17 28 9 15 1005.2 1005.2 0.0
16/10:00pm 15.1 11.2 5.3 52 4.7 WSW 15 22 8 12 1004.6 1004.6 0.0
16/09:30pm 15.8 8.4 5.1 49 5.1 WSW 33 52 18 28 1003.8 1003.8 0.0
16/09:13pm 16.0 8.4 5.6 50 5.0 WSW 35 54 19 29 1003.4 1003.4 0.0
16/09:00pm 16.4 8.3 5.1 47 5.4 WSW 37 54 20 29 1003.1 1003.1 0.0
16/08:30pm 17.5 9.4 5.1 44 6.0 WSW 37 56 20 30 1002.4 1002.4 0.0
16/08:00pm 18.2 9.6 4.7 41 6.5 W 39 59 21 32 1001.5 1001.5 0.0
16/07:30pm 18.3 10.5 6.5 46 5.9 W 37 57 20 31 1000.9 1000.9 0.0
16/07:00pm 17.1 8.4 7.7 54 4.8 W 43 63 23 34 1000.2 1000.2 0.0
16/06:30pm 18.9 9.3 8.0 49 5.6 W 48 69 26 37 999.1 999.1 0.0
16/06:00pm 19.1 10.4 11.2 60 4.3 W 48 69 26 37 998.2 998.2 0.0
16/05:50pm 20.4 12.1 9.9 51 5.6 W 44 70 24 38 997.6 997.6 0.0
16/05:46pm 20.5 11.4 9.7 50 5.8 W 48 70 26 38 997.4 997.4 0.0
16/05:30pm 20.0 8.1 9.9 52 5.4 W 63 91 34 49 996.8 996.8 0.0
16/05:00pm 20.8 11.2 12.0 57 5.0 WSW 54 76 29 41 995.5 995.5 0.0
16/04:30pm 23.5 13.1 9.1 40 7.8 W 54 78 29 42 994.7 994.7 0.0
16/04:28pm 24.8 14.2 8.3 35 8.8 W 54 78 29 42 994.3 994.3 0.0
16/04:00pm 31.1 19.6 -2.8 11 15.7 WNW 48 70 26 38 992.8 992.8 0.0
16/03:30pm 30.5 17.6 -2.1 12 15.1 WNW 56 76 30 41 992.1 992.1 0.0
16/03:00pm 31.9 21.4 -1.0 12 15.8 WNW 44 63 24 34 991.5 991.5 0.0
16/02:33pm 32.5 22.3 -0.5 12 15.9 WNW 43 61 23 33 991.5 991.5 0.0
16/02:30pm 31.5 21.2 -1.3 12 15.5 WNW 43 57 23 31 991.5 991.5 0.0
16/02:04pm 33.0 23.4 -1.4 11 16.4 WNW 39 59 21 32 991.8 991.8 0.0
16/02:00pm 33.1 23.1 -1.3 11 16.6 WNW 41 59 22 32 991.7 991.7 0.0
16/01:50pm 32.1 23.7 -0.9 12 15.8 NW 33 54 18 29 992.0 992.0 0.0
16/01:30pm 32.2 25.4 -2.0 11 16.0 WNW 24 44 13 24 992.5 992.5 0.0
16/01:26pm 31.5 26.1 -1.3 12 15.5 NE 17 44 9 24 992.6 992.6 0.0
16/01:00pm 26.5 23.9 13.3 44 7.8 E 19 24 10 13 992.9 992.9 0.0
16/12:30pm 25.3 22.3 13.8 49 6.8 E 22 28 12 15 993.8 993.8 0.0
16/12:00pm 25.1 22.7 14.3 51 6.5 SE 20 28 11 15 995.0 995.0 0.0
16/11:30am 26.0 24.6 14.5 49 6.9 E 15 20 8 11 995.1 995.1 0.0
16/11:00am 24.3 23.6 13.2 50 6.5 ENE 9 13 5 7 995.6 995.6 0.0
16/10:30am 23.3 23.0 14.3 57 5.3 S 9 13 5 7 995.7 995.7 0.0
16/10:00am 22.1 21.4 14.2 61 4.7 SSW 11 17 6 9 996.0 996.0 0.0
16/09:30am 21.2 20.5 14.4 65 4.0 SSW 11 17 6 9 996.1 996.1 0.0
16/09:00am 19.9 19.6 14.5 71 3.2 SSW 9 17 5 9 996.2 996.2 0.0
16/08:30am 19.4 19.0 15.1 76 2.5 S 11 15 6 8 995.8 995.8 0.0
16/08:00am 18.0 17.0 14.7 81 1.9 WSW 13 17 7 9 996.4 996.4 0.0

Latest Capital City Observations: Canberra | Sydney | Melbourne | Brisbane | Adelaide | Perth | Hobart | Darwin

Other Formats:

Comma delimited format used in spreadsheet applications
http://www.bom.gov.au/fwo/IDV60901/IDV60901.94865.axf

JavaScript Object Notation format (JSON) in row-major order
http://www.bom.gov.au/fwo/IDV60901/IDV60901.94865.json